หน้าหลัก
METAR-TAF:

METAR-TAF

ท่าอากาศยาน :

ตาฮีตี, เฟรนช์โปลินีเซีย

ละติจูด: 17-33S, ลองจิจูด: 149-37W, ความสูง: 2 ม.

การสังเกตสภาพอากาศปัจจุบัน

รายงานได้ทำขึ้นเมื่อ 41 นาทีที่แล้ว ณ เวลา 03:30 UTC
ลม 5 นอตจากเหนือ
อุณหภูมิ 29°C
ความชื้น 74%
ความกดอากาศ 1011 hPa
ทัศนวิสัย 10 กม. หรือมากกว่า
มีเมฆน้อยที่ความสูง 2500 ฟุต

METAR: NTAA 250330Z 01005KT 9999 FEW025 29/24 Q1011 NOSIG

เวลา: 18:11 (04:11 UTC)

การพยากรณ์

รายงานได้ทำขึ้นเมื่อ 5 ชั่วโมงและ 11 นาทีที่แล้ว ณ เวลา 23:00 UTC
การพยากรณ์มีผลตั้งแต่วันที่ 25 ณ เวลา 00 UTC จนถึงวันที่ 26 ณ เวลา 06 UTC
ลม 10 นอตจากตะวันออกเฉียงเหนือ
ทัศนวิสัย 10 กม. หรือมากกว่า
มีเมฆน้อยที่ความสูง 2300 ฟุต
กำลังกลายเป็น
ตั้งแต่วันที่ 25 ณ เวลา 03 UTC จนถึงวันที่ 25 ณ เวลา 04 UTC
ลม 5 นอตจากทิศทางซึ่งแปรผันได้

TAF: NTAA 242300Z 2500/2606 04010KT 9999 FEW023 BECMG 2503/2504 VRB05KT

สังเกตการณ์สภาพอากาศและพยากรณ์อากาศของสนามบินมากกว่า 4000 แห่ง (รายงาน METAR และ TAF).

สถานีที่ดูได้จะแสดงไว้ด้วยจุดสีเหลืองและสีแดงบนแผนที่.

เลื่อนเมาส์ไปเหนือจุดเพื่อดูชื่อสถานี.

แล้วคลิกเพื่อดูสังเกตการณ์และการพยากรณ์สภาพอากาศ.

ในการเปลี่ยนแผนที่: คลิกที่ปุ่มสีเขียวที่มีกากบาทสีดำเพื่อซูมเข้า; ที่ปุ่มสีเขียวที่มีขีดเพื่อซูมออก; หรือที่ลูกศรสีเขียวเพื่อไปยังแผนที่ที่อยู่ติดกัน.


METAR-TAF: